createdAt,value
2019-05-09T00:00:23.886Z,96217.77
2019-05-09T00:01:28.553Z,96217.77
2019-05-09T00:02:39.252Z,96204.50
2019-05-09T00:03:44.422Z,96209.04
2019-05-09T00:04:47.279Z,96209.04
2019-05-09T00:05:49.943Z,96213.25
2019-05-09T00:06:54.448Z,96216.33
2019-05-09T00:07:56.971Z,96204.27
2019-05-09T00:08:59.578Z,96224.39
2019-05-09T00:10:04.033Z,96211.41
2019-05-09T00:11:07.445Z,96197.56
2019-05-09T00:12:10.138Z,96200.49
2019-05-09T00:13:13.686Z,96216.66
2019-05-09T00:14:16.597Z,96207.89
2019-05-09T00:15:19.308Z,96207.89
2019-05-09T00:16:23.504Z,96218.66
2019-05-09T00:17:26.435Z,96212.02
2019-05-09T00:18:29.132Z,96212.02
2019-05-09T00:19:33.356Z,96215.28
2019-05-09T00:21:04.296Z,96211.58
2019-05-09T00:22:07.660Z,96215.87
2019-05-09T00:23:10.764Z,96214.02
2019-05-09T00:24:14.016Z,96221.79
2019-05-09T00:25:16.759Z,96215.16
2019-05-09T00:26:19.866Z,96215.16
2019-05-09T00:27:23.157Z,96230.39
2019-05-09T00:28:27.980Z,96219.91
2019-05-09T00:29:40.213Z,96219.14
2019-05-09T00:31:05.126Z,96219.14
2019-05-09T00:32:26.606Z,96221.63
2019-05-09T00:33:30.467Z,96229.32
2019-05-09T00:35:04.155Z,96210.85
2019-05-09T00:36:06.772Z,96233.66
2019-05-09T00:37:09.471Z,96228.11
2019-05-09T00:38:13.281Z,96216.12
2019-05-09T00:39:16.158Z,96233.97
2019-05-09T00:40:20.806Z,96230.41
2019-05-09T00:41:24.024Z,96225.89
2019-05-09T00:42:27.178Z,96235.37
2019-05-09T00:43:29.799Z,96231.67
2019-05-09T00:44:39.181Z,96221.75
2019-05-09T00:45:57.472Z,96221.75
2019-05-09T00:47:16.754Z,96222.16
2019-05-09T00:48:23.047Z,96212.73
2019-05-09T00:49:26.661Z,96212.73
2019-05-09T00:50:29.701Z,96217.38
2019-05-09T00:51:33.892Z,96220.45
2019-05-09T00:52:36.671Z,96223.30
2019-05-09T00:53:39.858Z,96216.94
2019-05-09T00:54:43.779Z,96216.94
2019-05-09T00:55:46.525Z,96225.79
2019-05-09T00:56:49.226Z,96216.17
2019-05-09T00:57:53.417Z,96213.46
2019-05-09T00:58:56.161Z,96213.23
2019-05-09T00:59:59.311Z,96219.38
2019-05-09T01:01:05.113Z,96212.60
2019-05-09T01:02:08.251Z,96227.06
2019-05-09T01:03:14.282Z,96225.26
2019-05-09T01:04:17.477Z,96225.26
2019-05-09T01:05:20.545Z,96223.48
2019-05-09T01:06:24.209Z,96223.48
2019-05-09T01:07:33.490Z,96216.05
2019-05-09T01:08:34.411Z,96223.54
2019-05-09T01:09:37.800Z,96224.36
2019-05-09T01:10:40.744Z,96214.80
2019-05-09T01:11:44.073Z,96213.16
2019-05-09T01:12:47.271Z,96214.80
2019-05-09T01:13:50.085Z,96209.19
2019-05-09T01:14:53.886Z,96216.42
2019-05-09T01:15:56.710Z,96205.90
2019-05-09T01:16:59.394Z,96205.90
2019-05-09T01:18:04.460Z,96208.47
2019-05-09T01:19:07.263Z,96208.47
2019-05-09T01:20:09.939Z,96212.76
2019-05-09T01:21:13.402Z,96206.03
2019-05-09T01:22:16.166Z,96208.38
2019-05-09T01:23:18.887Z,96210.95
2019-05-09T01:24:23.298Z,96214.16
2019-05-09T01:25:26.626Z,96210.23
2019-05-09T01:26:29.675Z,96211.72
2019-05-09T01:27:33.915Z,96201.47
2019-05-09T01:28:36.838Z,96205.73
2019-05-09T01:29:39.475Z,96213.52
2019-05-09T01:30:43.822Z,96213.52
2019-05-09T01:31:51.611Z,96213.21
2019-05-09T01:33:13.605Z,96213.21
2019-05-09T01:34:28.805Z,96210.19
2019-05-09T01:35:33.850Z,96211.19
2019-05-09T01:36:54.094Z,96199.50
2019-05-09T01:37:57.088Z,96212.30
2019-05-09T01:38:59.767Z,96207.66
2019-05-09T01:40:04.297Z,96218.27
2019-05-09T01:41:22.866Z,96208.02
2019-05-09T01:42:11.313Z,96214.48
2019-05-09T01:43:15.680Z,96214.48
2019-05-09T01:44:18.850Z,96214.56
2019-05-09T01:45:23.556Z,96211.91
2019-05-09T01:46:25.865Z,96214.34
2019-05-09T01:47:28.945Z,96203.91
2019-05-09T01:48:33.914Z,96206.53
2019-05-09T01:49:35.971Z,96203.73
2019-05-09T01:50:39.109Z,96218.94
2019-05-09T01:51:44.347Z,96205.86
2019-05-09T01:52:46.495Z,96211.50
2019-05-09T01:53:53.228Z,96216.83
2019-05-09T01:54:55.899Z,96213.77
2019-05-09T01:55:58.870Z,96212.72
2019-05-09T01:57:03.235Z,96208.48
2019-05-09T01:58:06.192Z,96213.13
2019-05-09T01:59:10.360Z,96209.59
2019-05-09T02:00:13.325Z,96209.59
2019-05-09T02:01:16.007Z,96220.06
2019-05-09T02:02:19.102Z,96215.42
2019-05-09T02:03:23.335Z,96203.52
2019-05-09T02:04:26.108Z,96214.52
2019-05-09T02:05:28.814Z,96205.31
2019-05-09T02:06:33.280Z,96211.54
2019-05-09T02:07:36.000Z,96207.84
2019-05-09T02:08:38.706Z,96206.95
2019-05-09T02:09:44.692Z,96200.70
2019-05-09T02:10:47.578Z,96201.34
2019-05-09T02:11:50.277Z,96205.27
2019-05-09T02:12:53.905Z,96205.27
2019-05-09T02:13:56.607Z,96207.66
2019-05-09T02:15:05.248Z,96210.32
2019-05-09T02:16:34.618Z,96207.97
2019-05-09T02:18:05.478Z,96210.81
2019-05-09T02:19:33.169Z,96208.79
2019-05-09T02:20:36.343Z,96205.53
2019-05-09T02:21:39.353Z,96208.02
2019-05-09T02:22:43.486Z,96207.30
2019-05-09T02:23:46.264Z,96200.98
2019-05-09T02:24:49.371Z,96200.98
2019-05-09T02:25:53.263Z,96201.84
2019-05-09T02:26:55.985Z,96200.17
2019-05-09T02:27:59.196Z,96196.70
2019-05-09T02:29:03.243Z,96196.70
2019-05-09T02:30:06.222Z,96197.05
2019-05-09T02:31:08.968Z,96197.55
2019-05-09T02:32:14.340Z,96197.60
2019-05-09T02:33:16.863Z,96192.50
2019-05-09T02:34:19.999Z,96192.50
2019-05-09T02:35:22.635Z,96197.69
2019-05-09T02:36:29.459Z,96192.63
2019-05-09T02:37:30.066Z,96191.14
2019-05-09T02:38:32.766Z,96183.73
2019-05-09T02:39:35.371Z,96190.56
2019-05-09T02:40:39.343Z,96190.83
2019-05-09T02:41:59.401Z,96191.41
2019-05-09T02:42:48.935Z,96184.51
2019-05-09T02:43:50.914Z,96176.44
2019-05-09T02:44:53.525Z,96189.16
2019-05-09T02:46:19.017Z,96189.70
2019-05-09T02:47:23.739Z,96186.44
2019-05-09T02:48:28.854Z,96189.56
2019-05-09T02:49:30.808Z,96186.44
2019-05-09T02:50:33.492Z,96184.06
2019-05-09T02:51:38.753Z,96183.65
2019-05-09T02:52:40.989Z,96180.72
2019-05-09T02:53:43.630Z,96175.39
2019-05-09T02:54:49.701Z,96184.51
2019-05-09T02:55:50.675Z,96181.89
2019-05-09T02:56:53.326Z,96182.66
2019-05-09T02:57:59.167Z,96178.82
2019-05-09T02:59:12.439Z,96178.82
2019-05-09T03:00:40.561Z,96181.89
2019-05-09T03:02:02.208Z,96181.45
2019-05-09T03:03:11.242Z,96181.66
2019-05-09T03:04:14.249Z,96177.38
2019-05-09T03:05:19.631Z,96174.31
2019-05-09T03:06:21.677Z,96180.75
2019-05-09T03:07:43.101Z,96178.19
2019-05-09T03:08:48.841Z,96168.18
2019-05-09T03:09:50.306Z,96175.48
2019-05-09T03:10:52.951Z,96179.95
2019-05-09T03:11:58.555Z,96177.38
2019-05-09T03:13:00.398Z,96180.09
2019-05-09T03:14:03.170Z,96182.80
2019-05-09T03:15:08.475Z,96186.22
2019-05-09T03:16:13.348Z,96181.45
2019-05-09T03:17:18.427Z,96191.05
2019-05-09T03:18:20.820Z,96186.58
2019-05-09T03:19:23.643Z,96187.27
2019-05-09T03:20:45.068Z,96180.72
2019-05-09T03:21:58.224Z,96181.94
2019-05-09T03:22:59.598Z,96181.94
2019-05-09T03:24:02.305Z,96183.42
2019-05-09T03:25:08.791Z,96184.64
2019-05-09T03:26:13.621Z,96184.64
2019-05-09T03:27:23.119Z,96187.05
2019-05-09T03:29:02.665Z,96185.14
2019-05-09T03:30:11.445Z,96185.69
2019-05-09T03:31:12.239Z,96173.51
2019-05-09T03:32:19.065Z,96176.58
2019-05-09T03:33:21.948Z,96176.58
2019-05-09T03:34:25.055Z,96173.59
2019-05-09T03:35:28.100Z,96181.36
2019-05-09T03:36:30.747Z,96181.03
2019-05-09T03:37:33.822Z,96178.33
2019-05-09T03:38:37.722Z,96180.59
2019-05-09T03:39:40.474Z,96182.38
2019-05-09T03:40:43.129Z,96182.16
2019-05-09T03:41:45.756Z,96175.48
2019-05-09T03:42:52.892Z,96170.83
2019-05-09T03:43:58.357Z,96173.41
2019-05-09T03:45:00.470Z,96175.20
2019-05-09T03:46:25.102Z,96181.17
2019-05-09T03:47:37.642Z,96173.63
2019-05-09T03:48:44.187Z,96180.17
2019-05-09T03:50:08.062Z,96176.88
2019-05-09T03:51:10.509Z,96176.88
2019-05-09T03:52:14.177Z,96175.06
2019-05-09T03:53:18.410Z,96174.48
2019-05-09T03:54:21.573Z,96169.98
2019-05-09T03:55:34.391Z,96172.69
2019-05-09T03:56:44.582Z,96176.83
2019-05-09T03:57:58.071Z,96179.21
2019-05-09T03:59:01.284Z,96167.22
2019-05-09T04:00:04.048Z,96175.02
2019-05-09T04:01:10.873Z,96172.85
2019-05-09T04:02:14.183Z,96168.84
2019-05-09T04:03:19.842Z,96177.27
2019-05-09T04:04:21.209Z,96171.14
2019-05-09T04:05:23.858Z,96175.64
2019-05-09T04:06:28.172Z,96171.45
2019-05-09T04:07:31.100Z,96171.58
2019-05-09T04:08:34.578Z,96166.89
2019-05-09T04:09:37.492Z,96172.85
2019-05-09T04:10:41.564Z,96171.28
2019-05-09T04:11:48.523Z,96173.80
2019-05-09T04:12:55.757Z,96175.48
2019-05-09T04:14:00.143Z,96162.60
2019-05-09T04:15:03.141Z,96161.16
2019-05-09T04:16:07.514Z,96172.72
2019-05-09T04:17:12.258Z,96168.10
2019-05-09T04:18:14.969Z,96178.13
2019-05-09T04:19:18.190Z,96178.94
2019-05-09T04:20:20.828Z,96175.56
2019-05-09T04:21:24.197Z,96176.09
2019-05-09T04:22:27.209Z,96177.86
2019-05-09T04:23:30.677Z,96179.88
2019-05-09T04:24:33.493Z,96177.39
2019-05-09T04:25:38.389Z,96177.39
2019-05-09T04:26:57.449Z,96186.01
2019-05-09T04:27:59.769Z,96188.94
2019-05-09T04:29:02.659Z,96193.22
2019-05-09T04:30:09.465Z,96180.73
2019-05-09T04:31:11.721Z,96180.73
2019-05-09T04:32:14.911Z,96187.44
2019-05-09T04:33:18.152Z,96185.78
2019-05-09T04:34:21.410Z,96185.78
2019-05-09T04:35:24.629Z,96192.84
2019-05-09T04:36:42.155Z,96190.48
2019-05-09T04:37:45.275Z,96190.48
2019-05-09T04:38:48.172Z,96190.43
2019-05-09T04:39:54.055Z,96178.16
2019-05-09T04:40:58.172Z,96183.36
2019-05-09T04:42:05.167Z,96183.36
2019-05-09T04:43:12.520Z,96186.20
2019-05-09T04:44:16.938Z,96192.20
2019-05-09T04:45:28.280Z,96192.20
2019-05-09T04:46:31.130Z,96195.77
2019-05-09T04:47:38.648Z,96185.76
2019-05-09T04:48:38.249Z,96185.76
2019-05-09T04:49:45.180Z,96191.51
2019-05-09T04:50:59.306Z,96194.64
2019-05-09T04:51:59.469Z,96195.33
2019-05-09T04:53:02.249Z,96202.98
2019-05-09T04:54:07.210Z,96206.47
2019-05-09T04:55:10.054Z,96202.98
2019-05-09T04:56:27.904Z,96210.09
2019-05-09T04:57:32.919Z,96206.77
2019-05-09T04:58:37.629Z,96206.91
2019-05-09T04:59:40.414Z,96208.04
2019-05-09T05:01:12.019Z,96205.41
2019-05-09T05:02:27.807Z,96206.55
2019-05-09T05:03:31.068Z,96206.55
2019-05-09T05:04:33.751Z,96208.27
2019-05-09T05:05:40.194Z,96212.60
2019-05-09T05:06:43.119Z,96213.18
2019-05-09T05:07:47.969Z,96210.25
2019-05-09T05:08:50.748Z,96210.25
2019-05-09T05:09:53.570Z,96214.40
2019-05-09T05:10:58.214Z,96212.83
2019-05-09T05:12:01.013Z,96215.53
2019-05-09T05:13:03.642Z,96208.06
2019-05-09T05:14:09.081Z,96209.28
2019-05-09T05:15:14.223Z,96207.78
2019-05-09T05:16:18.464Z,96210.63
2019-05-09T05:17:21.491Z,96210.14
2019-05-09T05:18:28.263Z,96211.21
2019-05-09T05:19:35.158Z,96211.21
2019-05-09T05:20:37.997Z,96208.42
2019-05-09T05:21:44.907Z,96208.42
2019-05-09T05:22:53.324Z,96211.92
2019-05-09T05:24:08.198Z,96208.16
2019-05-09T05:25:12.598Z,96204.39
2019-05-09T05:26:15.225Z,96209.09
2019-05-09T05:27:21.042Z,96206.73
2019-05-09T05:28:24.150Z,96206.96
2019-05-09T05:29:28.169Z,96206.96
2019-05-09T05:43:41.565Z,96214.34
2019-05-09T05:44:40.617Z,96216.41
2019-05-09T05:45:53.079Z,96212.12
2019-05-09T05:47:18.040Z,96210.91
2019-05-09T05:48:27.894Z,96210.91
2019-05-09T05:49:30.712Z,96213.33
2019-05-09T05:50:33.410Z,96213.11
2019-05-09T05:51:54.399Z,96214.11
2019-05-09T05:52:57.820Z,96217.77
2019-05-09T05:54:04.294Z,96219.82
2019-05-09T05:55:11.281Z,96213.41
2019-05-09T05:56:17.168Z,96211.05
2019-05-09T05:57:20.206Z,96213.34
2019-05-09T05:58:23.011Z,96215.68
2019-05-09T05:59:28.356Z,96214.03
2019-05-09T06:00:33.266Z,96213.45
2019-05-09T06:01:38.210Z,96207.80
2019-05-09T06:02:42.011Z,96210.73
2019-05-09T06:03:44.724Z,96208.89
2019-05-09T06:04:49.839Z,96214.43
2019-05-09T06:05:52.542Z,96219.79
2019-05-09T06:06:58.847Z,96211.25
2019-05-09T06:08:08.024Z,96218.39
2019-05-09T06:09:14.827Z,96219.67
2019-05-09T06:10:18.956Z,96217.26
2019-05-09T06:11:22.133Z,96223.97
2019-05-09T06:12:27.672Z,96221.88
2019-05-09T06:13:30.404Z,96221.88
2019-05-09T06:14:37.614Z,96220.05
2019-05-09T06:15:39.849Z,96222.02
2019-05-09T06:16:42.525Z,96221.25
2019-05-09T06:17:45.214Z,96221.25
2019-05-09T06:18:48.253Z,96219.75
2019-05-09T06:19:51.080Z,96217.30
2019-05-09T06:20:58.283Z,96219.23
2019-05-09T06:22:01.267Z,96211.95
2019-05-09T06:23:04.132Z,96213.52
2019-05-09T06:24:08.562Z,96217.66
2019-05-09T06:25:11.845Z,96218.50
2019-05-09T06:26:14.798Z,96218.50
2019-05-09T06:27:18.347Z,96218.02
2019-05-09T06:28:21.240Z,96219.78
2019-05-09T06:29:23.994Z,96223.59
2019-05-09T06:30:28.126Z,96220.30
2019-05-09T06:31:30.984Z,96227.78
2019-05-09T06:32:34.018Z,96231.85
2019-05-09T06:33:46.248Z,96221.30
2019-05-09T06:34:43.736Z,96217.30
2019-05-09T06:35:48.091Z,96218.50
2019-05-09T06:36:50.913Z,96220.52
2019-05-09T06:37:58.822Z,96226.56
2019-05-09T06:39:03.616Z,96220.92
2019-05-09T06:40:13.430Z,96220.08
2019-05-09T06:41:18.218Z,96218.57
2019-05-09T06:42:20.857Z,96220.77
2019-05-09T06:43:25.732Z,96217.20
2019-05-09T06:44:33.239Z,96217.20
2019-05-09T06:45:48.483Z,96214.24
2019-05-09T06:46:55.107Z,96209.11
2019-05-09T06:48:00.477Z,96215.82
2019-05-09T06:49:21.460Z,96210.80
2019-05-09T06:50:13.909Z,96211.52
2019-05-09T06:51:20.644Z,96209.58
2019-05-09T06:52:24.979Z,96206.09
2019-05-09T06:53:28.104Z,96203.16
2019-05-09T06:54:31.066Z,96213.84
2019-05-09T06:55:34.313Z,96206.53
2019-05-09T06:56:38.164Z,96205.66
2019-05-09T06:57:43.245Z,96205.66
2019-05-09T06:58:48.087Z,96205.66
2019-05-09T06:59:50.971Z,96208.89
2019-05-09T07:01:00.911Z,96205.87
2019-05-09T07:02:08.197Z,96199.41
2019-05-09T07:03:14.819Z,96207.66
2019-05-09T07:04:27.640Z,96209.56
2019-05-09T07:05:49.389Z,96205.05
2019-05-09T07:07:14.662Z,96208.00
2019-05-09T07:08:34.794Z,96213.31
2019-05-09T07:09:47.908Z,96211.40
2019-05-09T07:10:51.540Z,96195.36
2019-05-09T07:11:54.523Z,96195.52
2019-05-09T07:12:58.453Z,96194.33
2019-05-09T07:14:01.725Z,96202.30
2019-05-09T07:15:08.738Z,96196.86
2019-05-09T07:16:11.891Z,96206.81
2019-05-09T07:17:19.535Z,96200.32
2019-05-09T07:18:35.326Z,96202.72
2019-05-09T07:19:38.548Z,96204.03
2019-05-09T07:20:41.781Z,96204.03
2019-05-09T07:22:21.290Z,96201.12
2019-05-09T07:23:28.214Z,96196.92
2019-05-09T07:24:31.380Z,96198.02
2019-05-09T07:25:51.192Z,96200.36
2019-05-09T07:26:54.043Z,96202.23
2019-05-09T07:27:58.672Z,96202.23
2019-05-09T07:29:07.550Z,96195.83
2019-05-09T07:30:20.608Z,96195.83
2019-05-09T07:31:31.227Z,96195.77
2019-05-09T07:32:39.652Z,96196.05
2019-05-09T07:34:04.770Z,96196.05
2019-05-09T07:35:08.951Z,96194.56
2019-05-09T07:36:12.128Z,96191.47
2019-05-09T07:37:18.587Z,96189.78
2019-05-09T07:38:31.545Z,96191.00
2019-05-09T07:39:34.253Z,96191.00
2019-05-09T07:40:38.529Z,96187.80
2019-05-09T07:41:41.962Z,96192.78
2019-05-09T07:42:44.972Z,96190.37
2019-05-09T07:43:48.156Z,96185.38
2019-05-09T07:44:54.470Z,96185.38
2019-05-09T07:46:12.513Z,96182.16
2019-05-09T07:47:17.647Z,96185.12
2019-05-09T07:48:25.854Z,96185.12
2019-05-09T07:49:29.616Z,96180.20
2019-05-09T07:50:38.901Z,96177.50
2019-05-09T07:51:43.211Z,96186.46
2019-05-09T07:52:48.020Z,96176.33
2019-05-09T07:53:51.108Z,96187.61
2019-05-09T07:54:58.046Z,96187.61
2019-05-09T07:56:03.043Z,96190.21
2019-05-09T07:57:08.335Z,96183.64
2019-05-09T07:58:14.260Z,96185.38
2019-05-09T07:59:15.465Z,96185.38
2019-05-09T08:00:22.464Z,96183.73
2019-05-09T08:01:28.039Z,96184.00
2019-05-09T08:02:34.291Z,96184.44
2019-05-09T08:03:42.164Z,96180.27
2019-05-09T08:04:45.168Z,96179.28
2019-05-09T08:05:50.608Z,96181.23
2019-05-09T08:06:59.301Z,96177.69
2019-05-09T08:08:02.453Z,96180.03
2019-05-09T08:09:08.627Z,96178.62
2019-05-09T08:10:11.577Z,96184.49
2019-05-09T08:11:18.131Z,96183.15
2019-05-09T08:12:23.644Z,96181.88
2019-05-09T08:13:35.353Z,96175.63
2019-05-09T08:14:38.212Z,96175.63
2019-05-09T08:15:43.129Z,96180.69
2019-05-09T08:16:47.515Z,96177.92
2019-05-09T08:17:51.359Z,96177.92
2019-05-09T08:18:54.392Z,96178.41
2019-05-09T08:19:58.291Z,96172.95
2019-05-09T08:21:01.161Z,96176.74
2019-05-09T08:22:24.561Z,96173.91
2019-05-09T08:23:22.879Z,96170.25
2019-05-09T08:24:29.376Z,96177.39
2019-05-09T08:25:30.863Z,96177.39
2019-05-09T08:26:33.814Z,96171.09
2019-05-09T08:27:37.830Z,96173.64
2019-05-09T08:28:40.721Z,96173.64
2019-05-09T08:29:47.895Z,96171.63
2019-05-09T08:30:50.352Z,96168.45
2019-05-09T08:31:58.042Z,96165.63
2019-05-09T08:33:00.188Z,96170.56
2019-05-09T08:34:02.958Z,96167.51
2019-05-09T08:35:08.035Z,96167.51
2019-05-09T08:36:10.757Z,96164.08
2019-05-09T08:37:17.591Z,96173.34
2019-05-09T08:38:20.438Z,96167.25
2019-05-09T08:39:23.230Z,96163.27
2019-05-09T08:40:28.389Z,96166.59
2019-05-09T08:41:30.465Z,96174.20
2019-05-09T08:42:33.596Z,96188.36
2019-05-09T08:43:38.927Z,96188.36
2019-05-09T08:44:43.840Z,96172.99
2019-05-09T08:45:48.415Z,96171.47
2019-05-09T08:46:50.943Z,96167.61
2019-05-09T08:47:57.631Z,96171.95
2019-05-09T08:48:59.550Z,96171.95
2019-05-09T08:50:10.942Z,96164.72
2019-05-09T08:51:37.065Z,96167.58
2019-05-09T08:52:32.721Z,96168.72
2019-05-09T08:53:37.947Z,96168.72
2019-05-09T08:54:52.517Z,96164.59
2019-05-09T08:56:00.240Z,96164.59
2019-05-09T08:57:07.805Z,96165.03
2019-05-09T08:58:10.553Z,96166.14
2019-05-09T08:59:13.732Z,96166.14
2019-05-09T09:00:18.929Z,96166.05
2019-05-09T09:01:30.718Z,96163.16
2019-05-09T09:03:49.839Z,96157.38
2019-05-09T09:04:54.931Z,96160.81
2019-05-09T09:05:57.935Z,96170.17
2019-05-09T09:07:03.191Z,96165.41
2019-05-09T09:08:08.571Z,96171.91
2019-05-09T09:09:11.552Z,96168.59
2019-05-09T09:10:14.214Z,96176.77
2019-05-09T09:11:34.112Z,96181.05
2019-05-09T09:12:38.362Z,96177.35
2019-05-09T09:13:42.192Z,96176.47
2019-05-09T09:14:47.650Z,96176.47
2019-05-09T09:16:08.337Z,96173.81
2019-05-09T09:16:54.612Z,96171.41
2019-05-09T09:18:00.085Z,96174.02
2019-05-09T09:19:02.795Z,96162.98
2019-05-09T09:20:07.695Z,96162.98
2019-05-09T09:21:13.112Z,96166.13
2019-05-09T09:22:18.131Z,96165.06
2019-05-09T09:23:21.370Z,96166.96
2019-05-09T09:24:24.039Z,96163.92
2019-05-09T09:25:31.083Z,96163.92
2019-05-09T09:26:34.007Z,96162.72
2019-05-09T09:27:38.056Z,96159.79
2019-05-09T09:28:40.970Z,96154.55
2019-05-09T09:29:47.933Z,96163.64
2019-05-09T09:30:48.651Z,96163.64
2019-05-09T09:31:51.602Z,96160.66
2019-05-09T09:32:58.680Z,96159.28
2019-05-09T09:34:04.159Z,96159.28
2019-05-09T09:35:09.449Z,96151.47
2019-05-09T09:36:12.416Z,96151.87
2019-05-09T09:37:18.658Z,96149.32
2019-05-09T09:38:28.022Z,96152.42
2019-05-09T09:39:34.612Z,96148.50
2019-05-09T09:40:38.480Z,96142.44
2019-05-09T09:41:41.602Z,96142.44
2019-05-09T09:42:44.857Z,96149.02
2019-05-09T09:43:47.883Z,96150.59
2019-05-09T09:44:51.557Z,96158.75
2019-05-09T09:46:07.200Z,96158.75
2019-05-09T09:47:01.348Z,96148.12
2019-05-09T09:48:08.951Z,96153.14
2019-05-09T09:49:12.203Z,96150.16
2019-05-09T09:50:17.821Z,96148.33
2019-05-09T09:51:23.175Z,96151.05
2019-05-09T09:52:34.245Z,96143.11
2019-05-09T09:53:44.017Z,96145.65
2019-05-09T09:54:44.111Z,96151.09
2019-05-09T09:55:52.125Z,96151.52
2019-05-09T09:56:58.618Z,96156.89
2019-05-09T09:58:02.568Z,96159.66
2019-05-09T09:59:20.457Z,96157.14
2019-05-09T10:00:48.275Z,96157.14
2019-05-09T10:02:10.332Z,96161.31
2019-05-09T10:03:18.577Z,96161.31
2019-05-09T10:04:24.344Z,96154.98
2019-05-09T10:05:30.421Z,96155.84
2019-05-09T10:06:33.092Z,96155.84
2019-05-09T10:07:43.413Z,96158.99
2019-05-09T10:08:59.496Z,96158.99
2019-05-09T10:10:02.369Z,96154.19
2019-05-09T10:11:08.081Z,96159.63
2019-05-09T10:12:11.841Z,96160.60
2019-05-09T10:13:14.652Z,96160.60
2019-05-09T10:14:33.364Z,96151.16
2019-05-09T10:15:43.429Z,96143.00
2019-05-09T10:17:17.904Z,96148.09
2019-05-09T10:18:40.052Z,96148.09
2019-05-09T10:19:58.610Z,96144.20
2019-05-09T10:21:07.787Z,96141.34
2019-05-09T10:22:14.314Z,96143.37
2019-05-09T10:23:21.667Z,96137.88
2019-05-09T10:24:24.682Z,96139.45
2019-05-09T10:25:29.337Z,96138.72
2019-05-09T10:26:32.632Z,96133.84
2019-05-09T10:27:38.706Z,96134.60
2019-05-09T10:28:45.293Z,96151.88
2019-05-09T10:29:47.976Z,96140.77
2019-05-09T10:43:04.654Z,96134.66
2019-05-09T10:44:32.829Z,96153.00
2019-05-09T10:45:43.167Z,96149.92
2019-05-09T10:47:02.240Z,96149.92
2019-05-09T10:48:23.908Z,96148.98
2019-05-09T10:49:32.415Z,96148.06
2019-05-09T10:50:44.344Z,96148.06
2019-05-09T10:51:58.139Z,96145.17
2019-05-09T10:53:07.812Z,96145.17
2019-05-09T10:54:14.118Z,96148.19
2019-05-09T10:55:20.099Z,96147.80
2019-05-09T10:56:28.339Z,96151.47
2019-05-09T10:57:34.319Z,96149.92
2019-05-09T10:58:37.509Z,96147.97
2019-05-09T10:59:42.513Z,96149.92
2019-05-09T11:00:48.378Z,96148.22
2019-05-09T11:01:52.139Z,96145.93
2019-05-09T11:02:55.001Z,96145.93
2019-05-09T11:03:58.976Z,96151.28
2019-05-09T11:05:08.216Z,96153.78
2019-05-09T11:06:12.564Z,96148.50
2019-05-09T11:07:18.063Z,96157.19
2019-05-09T11:08:20.350Z,96137.91
2019-05-09T11:09:23.220Z,96137.91
2019-05-09T11:10:32.484Z,96150.73
2019-05-09T11:11:35.836Z,96145.30
2019-05-09T11:12:44.396Z,96132.78
2019-05-09T11:13:48.247Z,96146.05
2019-05-09T11:14:52.247Z,96130.36
2019-05-09T11:15:55.058Z,96143.08
2019-05-09T11:17:07.910Z,96150.30
2019-05-09T11:18:05.190Z,96140.09
2019-05-09T11:19:08.326Z,96145.16
2019-05-09T11:20:11.125Z,96142.81
2019-05-09T11:21:24.614Z,96150.30
2019-05-09T11:22:30.147Z,96150.30
2019-05-09T11:23:39.322Z,96158.17
2019-05-09T11:24:49.792Z,96155.29
2019-05-09T11:25:49.866Z,96151.47
2019-05-09T11:26:52.667Z,96155.50
2019-05-09T11:28:11.128Z,96155.50
2019-05-09T11:29:07.989Z,96152.91
2019-05-09T11:30:11.023Z,96151.12
2019-05-09T11:31:14.525Z,96144.42
2019-05-09T11:32:17.878Z,96151.28
2019-05-09T11:33:21.416Z,96156.72
2019-05-09T11:34:31.361Z,96157.92
2019-05-09T11:35:34.554Z,96152.58
2019-05-09T11:36:40.402Z,96152.73
2019-05-09T11:37:48.048Z,96159.08
2019-05-09T11:38:50.443Z,96159.08
2019-05-09T11:39:53.497Z,96152.50
2019-05-09T11:40:57.881Z,96160.73
2019-05-09T11:42:00.643Z,96156.58
2019-05-09T11:43:03.342Z,96158.41
2019-05-09T11:44:08.752Z,96162.75
2019-05-09T11:45:17.737Z,96153.23
2019-05-09T11:46:19.952Z,96159.27
2019-05-09T11:47:34.356Z,96161.06
2019-05-09T11:48:28.365Z,96150.89
2019-05-09T11:49:35.952Z,96168.13
2019-05-09T11:50:39.060Z,96163.45
2019-05-09T11:51:50.147Z,96158.06
2019-05-09T11:52:59.757Z,96163.14
2019-05-09T11:54:02.314Z,96165.69
2019-05-09T11:55:27.469Z,96158.26
2019-05-09T11:56:21.458Z,96155.72
2019-05-09T11:57:27.578Z,96164.00
2019-05-09T11:58:29.265Z,96156.86
2019-05-09T11:59:32.081Z,96154.39
2019-05-09T12:00:34.820Z,96158.67
2019-05-09T12:01:39.694Z,96154.31
2019-05-09T12:02:43.744Z,96154.13
2019-05-09T12:03:51.937Z,96154.13
2019-05-09T12:04:57.175Z,96149.56
2019-05-09T12:06:00.043Z,96149.80
2019-05-09T12:07:02.981Z,96149.80
2019-05-09T12:08:08.264Z,96154.97
2019-05-09T12:09:10.397Z,96155.41
2019-05-09T12:10:22.606Z,96157.24
2019-05-09T12:11:25.540Z,96160.44
2019-05-09T12:12:28.458Z,96160.44
2019-05-09T12:13:31.155Z,96159.66
2019-05-09T12:14:38.189Z,96160.99
2019-05-09T12:15:43.784Z,96162.94
2019-05-09T12:16:50.154Z,96162.94
2019-05-09T12:18:02.486Z,96165.12
2019-05-09T12:19:02.709Z,96156.73
2019-05-09T12:20:12.289Z,96161.15
2019-05-09T12:21:10.212Z,96161.15
2019-05-09T12:22:15.097Z,96155.92
2019-05-09T12:23:20.931Z,96156.73
2019-05-09T12:24:29.641Z,96155.78
2019-05-09T12:25:40.323Z,96155.14
2019-05-09T12:26:48.150Z,96155.14
2019-05-09T12:27:52.444Z,96156.12
2019-05-09T12:29:00.362Z,96156.12
2019-05-09T12:30:07.712Z,96159.15
2019-05-09T12:31:14.313Z,96155.80
2019-05-09T12:32:20.296Z,96161.92
2019-05-09T12:33:23.271Z,96164.05
2019-05-09T12:34:27.722Z,96160.13
2019-05-09T12:35:33.646Z,96156.44
2019-05-09T12:36:39.761Z,96171.06
2019-05-09T12:37:43.493Z,96158.09
2019-05-09T12:38:59.098Z,96158.09
2019-05-09T12:40:01.100Z,96160.31
2019-05-09T12:41:04.124Z,96166.19
2019-05-09T12:42:08.898Z,96159.30
2019-05-09T12:43:14.727Z,96154.83
2019-05-09T12:44:19.875Z,96142.81
2019-05-09T12:45:25.204Z,96157.06
2019-05-09T12:46:32.811Z,96159.92
2019-05-09T12:47:39.365Z,96163.14
2019-05-09T12:48:42.190Z,96163.14
2019-05-09T12:49:45.162Z,96152.03
2019-05-09T12:50:48.872Z,96155.31
2019-05-09T12:51:52.154Z,96160.20
2019-05-09T12:52:58.195Z,96153.99
2019-05-09T12:54:03.060Z,96156.54
2019-05-09T12:55:08.141Z,96153.08
2019-05-09T12:56:14.821Z,96159.30
2019-05-09T12:57:19.266Z,96159.30
2019-05-09T12:59:52.753Z,96167.97
2019-05-09T13:00:53.752Z,96162.97
2019-05-09T13:01:58.046Z,96162.97
2019-05-09T13:03:08.518Z,96165.31
2019-05-09T13:04:17.805Z,96165.17
2019-05-09T13:05:27.410Z,96167.72
2019-05-09T13:06:30.427Z,96163.91
2019-05-09T13:07:33.417Z,96163.91
2019-05-09T13:08:38.771Z,96166.36
2019-05-09T13:09:41.679Z,96171.09
2019-05-09T13:10:45.003Z,96167.22
2019-05-09T13:11:49.494Z,96167.22
2019-05-09T13:12:54.014Z,96162.38
2019-05-09T13:13:56.945Z,96170.92
2019-05-09T13:14:59.836Z,96168.13
2019-05-09T13:16:11.978Z,96170.84
2019-05-09T13:17:24.198Z,96177.73
2019-05-09T13:18:45.499Z,96176.55
2019-05-09T13:19:49.467Z,96169.45
2019-05-09T13:20:52.536Z,96169.45
2019-05-09T13:21:58.880Z,96181.02
2019-05-09T13:23:01.607Z,96186.08
2019-05-09T13:24:04.634Z,96187.19